createdAt,value
2019-05-30T00:02:07.202Z,4.23
2019-05-30T00:04:37.409Z,5.03
2019-05-30T00:07:10.919Z,3.83
2019-05-30T00:09:40.362Z,4.90
2019-05-30T00:12:10.561Z,4.20
2019-05-30T00:14:40.722Z,3.97
2019-05-30T00:17:10.931Z,4.33
2019-05-30T00:19:41.078Z,3.57
2019-05-30T00:22:11.220Z,3.57
2019-05-30T00:24:41.642Z,2.73
2019-05-30T00:27:11.893Z,3.67
2019-05-30T00:29:42.204Z,3.83
2019-05-30T00:32:12.339Z,3.93
2019-05-30T00:34:42.488Z,4.73
2019-05-30T00:37:12.624Z,3.27
2019-05-30T00:39:43.853Z,3.40
2019-05-30T00:42:14.939Z,3.23
2019-05-30T00:44:45.073Z,2.77
2019-05-30T00:47:15.197Z,2.77
2019-05-30T00:49:45.413Z,3.07
2019-05-30T00:52:15.543Z,3.70
2019-05-30T00:54:45.780Z,3.23
2019-05-30T00:57:16.885Z,3.20
2019-05-30T00:59:47.043Z,3.10
2019-05-30T01:02:17.341Z,3.43
2019-05-30T01:04:47.489Z,2.87
2019-05-30T01:07:17.982Z,3.90
2019-05-30T01:09:48.116Z,8.87
2019-05-30T01:12:18.244Z,2.83
2019-05-30T01:14:48.398Z,5.23
2019-05-30T01:17:18.533Z,2.97
2019-05-30T01:19:48.676Z,2.37
2019-05-30T01:22:18.882Z,2.17
2019-05-30T01:24:49.023Z,2.73
2019-05-30T01:27:19.161Z,4.00
2019-05-30T01:29:49.495Z,2.53
2019-05-30T01:32:30.771Z,2.80
2019-05-30T01:35:01.978Z,3.97
2019-05-30T01:37:32.664Z,3.60
2019-05-30T01:40:04.128Z,2.33
2019-05-30T01:42:34.522Z,2.60
2019-05-30T01:45:08.486Z,2.10
2019-05-30T01:47:38.785Z,3.90
2019-05-30T01:50:09.539Z,3.00
2019-05-30T01:52:39.673Z,2.73
2019-05-30T01:55:09.872Z,3.10
2019-05-30T01:57:40.065Z,2.57
2019-05-30T02:00:20.659Z,2.57
2019-05-30T02:02:47.494Z,2.87
2019-05-30T02:05:17.628Z,2.80
2019-05-30T02:07:47.754Z,2.33
2019-05-30T02:10:18.181Z,2.90
2019-05-30T02:12:48.305Z,3.17
2019-05-30T02:15:18.461Z,2.83
2019-05-30T02:17:48.593Z,2.43
2019-05-30T02:20:18.726Z,3.30
2019-05-30T02:22:48.856Z,3.07
2019-05-30T02:25:19.006Z,2.07
2019-05-30T02:27:49.137Z,2.10
2019-05-30T02:30:19.287Z,2.93
2019-05-30T02:32:49.415Z,2.57
2019-05-30T02:35:19.557Z,2.00
2019-05-30T02:37:49.682Z,2.70
2019-05-30T02:40:19.826Z,3.23
2019-05-30T02:42:49.973Z,2.53
2019-05-30T02:45:20.372Z,2.17
2019-05-30T02:47:50.570Z,2.30
2019-05-30T02:50:20.722Z,2.60
2019-05-30T02:52:50.850Z,2.20
2019-05-30T02:55:20.998Z,2.37
2019-05-30T02:57:51.118Z,3.13
2019-05-30T03:00:34.463Z,1.93
2019-05-30T03:03:06.729Z,2.60
2019-05-30T03:05:37.241Z,2.20
2019-05-30T03:08:09.799Z,2.03
2019-05-30T03:10:40.452Z,2.83
2019-05-30T03:13:11.234Z,2.57
2019-05-30T03:15:42.429Z,2.07
2019-05-30T03:18:14.609Z,1.77
2019-05-30T03:20:44.669Z,1.80
2019-05-30T03:23:15.154Z,1.93
2019-05-30T03:25:45.362Z,3.10
2019-05-30T03:28:15.464Z,3.00
2019-05-30T03:30:45.705Z,3.20
2019-05-30T03:33:36.406Z,2.50
2019-05-30T03:35:47.881Z,1.57
2019-05-30T03:38:17.978Z,2.00
2019-05-30T03:40:48.124Z,2.47
2019-05-30T03:43:18.247Z,2.30
2019-05-30T03:45:48.382Z,1.63
2019-05-30T03:48:18.545Z,2.23
2019-05-30T03:50:50.970Z,1.80
2019-05-30T03:53:22.079Z,1.93
2019-05-30T03:55:57.220Z,2.47
2019-05-30T03:58:38.066Z,2.33
2019-05-30T04:01:12.635Z,1.70
2019-05-30T04:04:13.829Z,2.37
2019-05-30T04:06:47.618Z,3.43
2019-05-30T04:09:22.430Z,2.03
2019-05-30T04:12:22.948Z,1.77
2019-05-30T04:14:55.499Z,1.47
2019-05-30T04:17:25.631Z,2.47
2019-05-30T04:19:55.768Z,2.67
2019-05-30T04:22:25.919Z,1.90
2019-05-30T04:24:56.036Z,3.53
2019-05-30T04:27:26.201Z,1.63
2019-05-30T04:29:56.358Z,1.50
2019-05-30T04:32:26.480Z,2.77
2019-05-30T04:34:56.612Z,1.50
2019-05-30T04:37:26.825Z,1.50
2019-05-30T04:39:56.982Z,2.83
2019-05-30T04:42:29.755Z,1.50
2019-05-30T04:44:59.890Z,1.50
2019-05-30T04:47:30.028Z,1.73
2019-05-30T04:50:01.203Z,2.73
2019-05-30T04:52:31.416Z,1.50
2019-05-30T04:55:01.597Z,2.93
2019-05-30T04:57:31.728Z,2.20
2019-05-30T05:00:01.884Z,1.60
2019-05-30T05:02:32.163Z,1.77
2019-05-30T05:05:02.284Z,1.67
2019-05-30T05:07:32.438Z,1.80
2019-05-30T05:10:07.005Z,1.60
2019-05-30T05:12:38.109Z,1.70
2019-05-30T05:15:08.301Z,2.70
2019-05-30T05:17:38.609Z,1.40
2019-05-30T05:20:09.106Z,1.37
2019-05-30T05:22:39.243Z,2.07
2019-05-30T05:25:09.381Z,1.80
2019-05-30T05:27:39.607Z,1.90
2019-05-30T05:30:10.542Z,1.60
2019-05-30T05:32:40.687Z,2.13
2019-05-30T05:35:10.814Z,2.80
2019-05-30T05:37:40.970Z,2.97
2019-05-30T05:40:11.100Z,1.77
2019-05-30T05:42:41.251Z,2.00
2019-05-30T05:45:12.055Z,1.60
2019-05-30T05:47:42.197Z,2.20
2019-05-30T05:50:12.335Z,2.47
2019-05-30T05:52:43.489Z,1.70
2019-05-30T05:55:14.640Z,1.80
2019-05-30T05:57:44.836Z,1.50
2019-05-30T06:00:15.029Z,1.93
2019-05-30T06:02:45.179Z,1.20
2019-05-30T06:05:15.970Z,2.17
2019-05-30T06:07:46.207Z,2.60
2019-05-30T06:10:17.394Z,2.13
2019-05-30T06:12:47.765Z,1.43
2019-05-30T06:15:18.788Z,1.70
2019-05-30T06:17:49.085Z,1.50
2019-05-30T06:20:19.299Z,1.67
2019-05-30T06:22:49.689Z,2.47
2019-05-30T06:25:24.050Z,2.10
2019-05-30T06:27:51.699Z,2.20
2019-05-30T06:30:22.343Z,1.50
2019-05-30T06:32:53.586Z,1.43
2019-05-30T06:35:24.966Z,1.67
2019-05-30T06:37:55.169Z,2.20
2019-05-30T06:40:25.589Z,3.97
2019-05-30T06:42:55.918Z,1.73
2019-05-30T06:45:26.847Z,1.90
2019-05-30T06:47:57.099Z,2.40
2019-05-30T06:50:27.233Z,5.00
2019-05-30T06:52:57.445Z,2.00
2019-05-30T06:55:27.594Z,2.70
2019-05-30T06:57:57.718Z,1.80
2019-05-30T07:00:28.153Z,1.77
2019-05-30T07:02:58.298Z,1.93
2019-05-30T07:05:30.581Z,1.77
2019-05-30T07:08:00.276Z,1.60
2019-05-30T07:10:31.108Z,2.57
2019-05-30T07:13:01.393Z,2.33
2019-05-30T07:15:31.524Z,1.63
2019-05-30T07:18:02.637Z,1.83
2019-05-30T07:20:33.825Z,1.47
2019-05-30T07:23:04.113Z,2.83
2019-05-30T07:25:34.247Z,2.10
2019-05-30T07:28:04.551Z,2.20
2019-05-30T07:30:34.692Z,1.50
2019-05-30T07:33:04.825Z,2.83
2019-05-30T07:35:34.973Z,3.60
2019-05-30T07:38:05.091Z,1.97
2019-05-30T07:40:35.329Z,2.63
2019-05-30T07:43:05.484Z,1.50
2019-05-30T07:45:35.642Z,2.83
2019-05-30T07:48:05.838Z,7.47
2019-05-30T07:50:35.975Z,8.70
2019-05-30T07:53:06.116Z,24.20
2019-05-30T07:55:36.266Z,29.20
2019-05-30T07:58:06.413Z,42.07
2019-05-30T08:00:37.654Z,50.93
2019-05-30T08:03:07.894Z,43.60
2019-05-30T08:05:38.996Z,36.43
2019-05-30T08:08:10.139Z,41.30
2019-05-30T08:10:40.304Z,30.97
2019-05-30T08:13:10.455Z,27.40
2019-05-30T08:15:44.037Z,24.43
2019-05-30T08:18:12.457Z,21.10
2019-05-30T08:20:45.987Z,22.10
2019-05-30T08:23:16.834Z,22.47
2019-05-30T08:25:46.987Z,20.67
2019-05-30T08:28:17.128Z,20.17
2019-05-30T08:30:47.288Z,17.80
2019-05-30T08:33:17.453Z,15.73
2019-05-30T08:35:50.152Z,15.73
2019-05-30T08:38:19.728Z,14.93
2019-05-30T08:40:49.903Z,16.60
2019-05-30T08:43:20.235Z,15.17
2019-05-30T08:45:50.434Z,15.43
2019-05-30T08:48:20.636Z,13.07
2019-05-30T08:50:50.858Z,13.87
2019-05-30T08:53:20.992Z,12.23
2019-05-30T08:55:51.151Z,10.43
2019-05-30T08:58:21.287Z,12.57
2019-05-30T09:00:52.471Z,11.13
2019-05-30T09:03:22.637Z,10.00
2019-05-30T09:06:02.986Z,11.67
2019-05-30T09:08:24.626Z,10.23
2019-05-30T09:10:54.788Z,12.87
2019-05-30T09:13:24.921Z,11.47
2019-05-30T09:15:55.074Z,11.87
2019-05-30T09:18:25.234Z,10.13
2019-05-30T09:20:55.386Z,9.73
2019-05-30T09:23:25.521Z,12.10
2019-05-30T09:25:55.663Z,9.83
2019-05-30T09:28:25.902Z,8.13
2019-05-30T09:30:56.060Z,7.73
2019-05-30T09:33:26.187Z,6.33
2019-05-30T09:36:09.952Z,6.77
2019-05-30T09:38:28.347Z,6.10
2019-05-30T09:40:58.484Z,5.93
2019-05-30T09:43:28.633Z,7.63
2019-05-30T09:45:58.778Z,8.03
2019-05-30T09:48:29.187Z,7.93
2019-05-30T09:50:59.406Z,5.67
2019-05-30T09:53:29.793Z,5.53
2019-05-30T09:55:59.942Z,5.57
2019-05-30T09:58:30.081Z,5.37
2019-05-30T10:01:00.816Z,4.20
2019-05-30T10:03:30.956Z,5.37
2019-05-30T10:06:01.112Z,3.77
2019-05-30T10:08:31.242Z,5.13
2019-05-30T10:11:01.437Z,5.23
2019-05-30T10:13:31.605Z,6.80
2019-05-30T10:16:01.739Z,6.23
2019-05-30T10:18:32.941Z,5.90
2019-05-30T10:21:04.171Z,3.23
2019-05-30T10:23:34.419Z,3.43
2019-05-30T10:26:04.695Z,4.60
2019-05-30T10:28:34.921Z,3.00
2019-05-30T10:31:05.078Z,4.60
2019-05-30T10:33:35.212Z,3.33
2019-05-30T10:36:05.358Z,5.60
2019-05-30T10:38:35.568Z,6.17
2019-05-30T10:41:05.683Z,4.00
2019-05-30T10:43:35.880Z,2.93
2019-05-30T10:46:06.081Z,4.50
2019-05-30T10:48:36.277Z,3.57
2019-05-30T10:51:06.561Z,4.33
2019-05-30T10:53:37.766Z,4.33
2019-05-30T10:56:08.039Z,4.70
2019-05-30T10:58:38.170Z,3.13
2019-05-30T11:01:09.356Z,4.10
2019-05-30T11:03:39.500Z,3.90
2019-05-30T11:06:35.513Z,4.77
2019-05-30T11:09:07.188Z,2.60
2019-05-30T11:11:37.691Z,2.50
2019-05-30T11:14:08.107Z,1.80
2019-05-30T11:16:38.305Z,2.53
2019-05-30T11:19:08.452Z,2.47
2019-05-30T11:21:38.640Z,1.70
2019-05-30T11:24:09.116Z,1.80
2019-05-30T11:26:39.450Z,2.80
2019-05-30T11:29:09.838Z,3.10
2019-05-30T11:31:39.966Z,3.13
2019-05-30T11:34:10.225Z,2.10
2019-05-30T11:36:40.529Z,2.83
2019-05-30T11:39:10.972Z,2.33
2019-05-30T11:41:41.357Z,2.80
2019-05-30T11:44:11.811Z,4.30
2019-05-30T11:46:42.102Z,3.20
2019-05-30T11:49:16.139Z,1.50
2019-05-30T11:51:48.024Z,2.33
2019-05-30T11:54:18.775Z,1.83
2019-05-30T11:56:50.028Z,2.67
2019-05-30T11:59:20.289Z,3.40
2019-05-30T12:01:50.415Z,3.67
2019-05-30T12:04:20.765Z,1.50
2019-05-30T12:06:51.559Z,2.03
2019-05-30T12:09:22.915Z,1.60
2019-05-30T12:11:53.187Z,2.00
2019-05-30T12:14:23.275Z,1.70
2019-05-30T12:16:53.397Z,2.47
2019-05-30T12:19:23.524Z,1.67
2019-05-30T12:21:53.658Z,2.30
2019-05-30T12:24:24.879Z,2.40
2019-05-30T12:26:56.009Z,1.83
2019-05-30T12:29:26.281Z,1.60
2019-05-30T12:31:59.217Z,1.97
2019-05-30T12:34:28.272Z,1.50
2019-05-30T12:36:58.566Z,2.17
2019-05-30T12:39:28.708Z,1.63
2019-05-30T12:41:59.019Z,3.20
2019-05-30T12:44:29.277Z,3.47
2019-05-30T12:46:59.469Z,2.23
2019-05-30T12:49:29.626Z,1.53
2019-05-30T12:52:00.569Z,2.30
2019-05-30T12:54:30.853Z,1.43
2019-05-30T12:57:01.048Z,2.13
2019-05-30T12:59:32.270Z,3.43
2019-05-30T13:02:03.112Z,2.50
2019-05-30T13:04:33.379Z,1.77
2019-05-30T13:07:04.012Z,1.93
2019-05-30T13:09:34.154Z,1.93
2019-05-30T13:12:04.293Z,2.57
2019-05-30T13:14:34.473Z,2.33
2019-05-30T13:17:05.926Z,1.37
2019-05-30T13:19:36.264Z,3.00
2019-05-30T13:22:07.491Z,3.90
2019-05-30T13:24:37.897Z,1.80
2019-05-30T13:27:08.029Z,2.17
2019-05-30T13:29:38.178Z,2.73
2019-05-30T13:32:08.316Z,5.27
2019-05-30T13:34:38.445Z,4.37
2019-05-30T13:37:08.572Z,3.43
2019-05-30T13:39:38.706Z,3.70
2019-05-30T13:42:08.913Z,4.03
2019-05-30T13:44:39.074Z,5.00
2019-05-30T13:47:09.199Z,3.47
2019-05-30T13:49:39.376Z,9.03
2019-05-30T13:52:09.482Z,4.00
2019-05-30T13:54:39.665Z,3.37
2019-05-30T13:57:09.834Z,3.03
2019-05-30T13:59:39.940Z,3.53
2019-05-30T14:02:10.340Z,3.63
2019-05-30T14:04:40.627Z,3.77
2019-05-30T14:07:10.828Z,3.53
2019-05-30T14:09:40.985Z,3.20
2019-05-30T14:12:11.286Z,4.33
2019-05-30T14:14:41.439Z,3.60
2019-05-30T14:17:13.618Z,3.67
2019-05-30T14:19:43.659Z,3.30
2019-05-30T14:22:13.973Z,10.20
2019-05-30T14:24:44.214Z,18.50
2019-05-30T14:27:14.351Z,12.83
2019-05-30T14:29:44.571Z,17.47
2019-05-30T14:32:14.727Z,13.73
2019-05-30T14:34:47.992Z,12.17
2019-05-30T14:37:18.134Z,12.60
2019-05-30T14:39:48.260Z,16.60
2019-05-30T14:42:18.421Z,18.77
2019-05-30T14:44:48.547Z,25.13
2019-05-30T14:47:18.698Z,25.43
2019-05-30T14:49:48.910Z,55.33
2019-05-30T14:52:19.066Z,33.43
2019-05-30T14:54:49.319Z,37.10
2019-05-30T14:57:19.734Z,37.37
2019-05-30T14:59:49.870Z,35.17
2019-05-30T15:02:20.309Z,42.67
2019-05-30T15:04:50.447Z,45.23
2019-05-30T15:07:20.607Z,43.73
2019-05-30T15:09:50.863Z,40.10
2019-05-30T15:12:21.104Z,37.03
2019-05-30T15:14:52.890Z,42.43
2019-05-30T15:17:23.124Z,34.77
2019-05-30T15:19:53.399Z,33.27
2019-05-30T15:22:23.886Z,34.50
2019-05-30T15:24:54.322Z,34.47
2019-05-30T15:27:24.554Z,27.43
2019-05-30T15:29:54.706Z,30.40
2019-05-30T15:32:24.924Z,28.03
2019-05-30T15:34:58.276Z,29.07
2019-05-30T15:37:28.428Z,28.73
2019-05-30T15:39:58.579Z,25.63
2019-05-30T15:42:28.852Z,25.60
2019-05-30T15:44:59.017Z,25.87
2019-05-30T15:47:29.171Z,24.97
2019-05-30T15:49:59.399Z,21.73
2019-05-30T15:52:29.558Z,19.20
2019-05-30T15:54:59.787Z,21.67
2019-05-30T15:57:29.983Z,19.37
2019-05-30T16:00:00.397Z,19.33
2019-05-30T16:02:30.697Z,20.73
2019-05-30T16:05:00.828Z,19.20
2019-05-30T16:07:32.354Z,20.03
2019-05-30T16:10:02.979Z,19.10
2019-05-30T16:12:33.382Z,16.10
2019-05-30T16:15:04.900Z,15.63
2019-05-30T16:17:38.877Z,16.40
2019-05-30T16:20:09.407Z,15.00
2019-05-30T16:22:39.556Z,15.20
2019-05-30T16:25:09.701Z,13.70
2019-05-30T16:27:39.836Z,14.67
2019-05-30T16:30:10.699Z,12.70
2019-05-30T16:32:41.017Z,13.17
2019-05-30T16:35:11.314Z,13.83
2019-05-30T16:37:41.553Z,12.83
2019-05-30T16:40:12.112Z,11.43
2019-05-30T16:42:42.269Z,12.93
2019-05-30T16:45:12.491Z,12.03
2019-05-30T16:47:42.744Z,11.03
2019-05-30T16:50:14.627Z,9.87
2019-05-30T16:52:44.876Z,10.03
2019-05-30T16:55:15.232Z,10.60
2019-05-30T16:57:45.386Z,7.33
2019-05-30T17:00:15.873Z,9.37
2019-05-30T17:02:46.011Z,8.23
2019-05-30T17:05:16.148Z,4.93
2019-05-30T17:07:48.498Z,7.57
2019-05-30T17:10:25.602Z,7.47
2019-05-30T17:12:50.122Z,7.60
2019-05-30T17:15:20.263Z,7.70
2019-05-30T17:17:50.407Z,7.87
2019-05-30T17:20:20.702Z,8.93
2019-05-30T17:22:50.819Z,5.93
2019-05-30T17:25:21.050Z,6.47
2019-05-30T17:27:51.182Z,5.80
2019-05-30T17:30:23.715Z,6.30
2019-05-30T17:32:55.166Z,5.93
2019-05-30T17:35:26.233Z,5.73
2019-05-30T17:37:56.546Z,5.17
2019-05-30T17:40:41.261Z,4.90
2019-05-30T17:42:58.531Z,5.47
2019-05-30T17:45:29.475Z,4.20
2019-05-30T17:48:15.567Z,4.83
2019-05-30T17:50:31.523Z,5.23
2019-05-30T17:53:06.345Z,4.23
2019-05-30T17:55:36.502Z,4.73
2019-05-30T17:58:10.154Z,3.83
2019-05-30T18:00:38.915Z,8.97
2019-05-30T18:03:09.055Z,4.63
2019-05-30T18:05:39.281Z,4.00
2019-05-30T18:08:09.394Z,3.73
2019-05-30T18:10:52.975Z,3.57
2019-05-30T18:13:12.569Z,3.83
2019-05-30T18:15:42.929Z,3.73
2019-05-30T18:18:13.003Z,4.53
2019-05-30T18:20:48.424Z,9.03
2019-05-30T18:23:14.951Z,3.47
2019-05-30T18:25:45.166Z,4.30
2019-05-30T18:28:15.294Z,3.00
2019-05-30T18:30:46.462Z,4.13
2019-05-30T18:33:16.581Z,5.20
2019-05-30T18:35:46.719Z,2.70
2019-05-30T18:38:16.864Z,2.53
2019-05-30T18:40:48.021Z,4.23
2019-05-30T18:43:18.153Z,3.37
2019-05-30T18:45:48.283Z,2.83
2019-05-30T18:48:18.408Z,3.37
2019-05-30T18:50:48.728Z,3.33
2019-05-30T18:53:18.860Z,3.40
2019-05-30T18:55:49.029Z,2.73
2019-05-30T18:58:19.150Z,3.80
2019-05-30T19:00:49.288Z,2.60
2019-05-30T19:03:19.495Z,2.43
2019-05-30T19:05:49.652Z,2.90
2019-05-30T19:08:20.928Z,3.53
2019-05-30T19:10:51.188Z,3.67
2019-05-30T19:13:21.312Z,3.03
2019-05-30T19:15:51.677Z,3.17
2019-05-30T19:18:21.882Z,2.10
2019-05-30T19:20:52.014Z,2.63
2019-05-30T19:23:22.148Z,1.80
2019-05-30T19:25:52.469Z,4.40
2019-05-30T19:28:22.603Z,3.77
2019-05-30T19:30:52.811Z,3.77
2019-05-30T19:33:22.938Z,2.27
2019-05-30T19:35:53.094Z,3.27
2019-05-30T19:38:23.226Z,2.80
2019-05-30T19:40:58.159Z,2.77
2019-05-30T19:43:29.721Z,2.27
2019-05-30T19:45:59.938Z,3.37
2019-05-30T19:48:30.302Z,3.17
2019-05-30T19:51:01.630Z,5.03
2019-05-30T19:53:34.960Z,2.90
2019-05-30T19:56:05.472Z,1.97
2019-05-30T19:58:35.679Z,2.10
2019-05-30T20:01:06.172Z,2.97
2019-05-30T20:03:44.772Z,1.70
2019-05-30T20:06:08.150Z,1.50
2019-05-30T20:08:51.319Z,2.67
2019-05-30T20:11:10.123Z,2.43
2019-05-30T20:13:41.302Z,2.33
2019-05-30T20:16:11.475Z,2.07
2019-05-30T20:18:41.814Z,2.13
2019-05-30T20:21:12.147Z,2.23
2019-05-30T20:23:53.735Z,1.47
2019-05-30T20:26:14.371Z,2.40
2019-05-30T20:28:44.525Z,2.30
2019-05-30T20:31:14.676Z,1.93
2019-05-30T20:33:46.833Z,2.00
2019-05-30T20:36:17.187Z,2.67
2019-05-30T20:38:47.398Z,1.93
2019-05-30T20:41:17.541Z,2.70
2019-05-30T20:43:47.694Z,2.23
2019-05-30T20:46:23.058Z,1.87
2019-05-30T20:48:50.744Z,2.50
2019-05-30T20:51:21.685Z,1.67
2019-05-30T20:53:54.767Z,3.73
2019-05-30T20:56:24.206Z,1.67
2019-05-30T20:58:54.771Z,1.90
2019-05-30T21:01:26.981Z,2.33
2019-05-30T21:03:57.912Z,9.03
2019-05-30T21:06:28.210Z,2.63
2019-05-30T21:08:59.977Z,2.17
2019-05-30T21:11:30.504Z,2.13
2019-05-30T21:14:00.680Z,2.37
2019-05-30T21:16:31.011Z,1.70
2019-05-30T21:19:02.107Z,2.10
2019-05-30T21:21:32.273Z,2.60
2019-05-30T21:24:02.509Z,2.70
2019-05-30T21:26:32.833Z,1.60
2019-05-30T21:29:02.954Z,2.80
2019-05-30T21:31:34.030Z,2.20
2019-05-30T21:34:04.566Z,2.17
2019-05-30T21:36:35.122Z,2.97
2019-05-30T21:39:07.808Z,1.87
2019-05-30T21:41:38.139Z,4.33
2019-05-30T21:44:08.274Z,2.10
2019-05-30T21:46:38.664Z,1.63
2019-05-30T21:49:09.896Z,1.97
2019-05-30T21:51:41.263Z,2.33
2019-05-30T21:54:11.512Z,1.87
2019-05-30T21:56:41.968Z,1.83
2019-05-30T21:59:12.172Z,1.77
2019-05-30T22:01:42.657Z,1.60
2019-05-30T22:04:12.794Z,1.97
2019-05-30T22:06:42.922Z,2.77
2019-05-30T22:09:13.142Z,2.10
2019-05-30T22:11:43.703Z,2.47
2019-05-30T22:14:14.923Z,1.97
2019-05-30T22:16:45.914Z,1.57
2019-05-30T22:19:16.180Z,1.63
2019-05-30T22:21:46.481Z,2.27
2019-05-30T22:24:16.625Z,1.30
2019-05-30T22:26:46.760Z,2.97
2019-05-30T22:29:16.895Z,1.57
2019-05-30T22:31:47.025Z,2.37
2019-05-30T22:34:18.239Z,1.70
2019-05-30T22:36:48.956Z,1.43
2019-05-30T22:39:19.191Z,1.57
2019-05-30T22:41:49.999Z,1.67
2019-05-30T22:44:20.251Z,1.30
2019-05-30T22:46:52.335Z,1.53
2019-05-30T22:49:22.489Z,1.50
2019-05-30T22:51:53.199Z,1.33
2019-05-30T22:54:23.444Z,2.23
2019-05-30T22:56:53.654Z,1.40
2019-05-30T22:59:23.782Z,2.17
2019-05-30T23:01:53.915Z,1.30
2019-05-30T23:04:24.051Z,1.20
2019-05-30T23:06:54.591Z,1.40
2019-05-30T23:09:24.916Z,1.20
2019-05-30T23:11:55.972Z,1.50
2019-05-30T23:14:26.238Z,1.20
2019-05-30T23:16:56.515Z,1.60
2019-05-30T23:19:26.673Z,1.20
2019-05-30T23:21:57.271Z,3.30
2019-05-30T23:24:27.412Z,1.53
2019-05-30T23:26:57.935Z,1.30
2019-05-30T23:29:29.237Z,1.70
2019-05-30T23:31:59.436Z,1.50
2019-05-30T23:34:29.572Z,1.00
2019-05-30T23:36:59.706Z,2.00
2019-05-30T23:39:29.845Z,1.50
2019-05-30T23:41:59.971Z,1.30
2019-05-30T23:44:30.118Z,1.23
2019-05-30T23:47:00.241Z,1.10
2019-05-30T23:49:30.442Z,1.20
2019-05-30T23:52:00.579Z,1.40
2019-05-30T23:54:30.716Z,1.50
2019-05-30T23:57:00.923Z,1.37
2019-05-30T23:59:32.124Z,3.47
